createdAt,value
2023-03-23T16:01:26.500Z,100590.75
2023-03-23T16:06:32.702Z,100582.28
2023-03-23T16:11:35.146Z,100558.94
2023-03-23T16:16:53.267Z,100586.84
2023-03-23T16:21:55.746Z,100591.19
2023-03-23T16:26:58.688Z,100581.44
2023-03-23T16:32:00.895Z,100598.88
2023-03-23T16:37:03.188Z,100600.97
2023-03-23T16:42:05.572Z,100589.72
2023-03-23T16:47:07.825Z,100596.72
2023-03-23T16:52:10.152Z,100600.09
2023-03-23T16:57:13.123Z,100590.41
2023-03-23T17:02:15.718Z,100612.50
2023-03-23T17:07:17.895Z,100611.75
2023-03-23T17:12:20.409Z,100632.53
2023-03-23T17:17:24.383Z,100632.09
2023-03-23T17:22:26.938Z,100643.38
2023-03-23T17:27:30.145Z,100632.44
2023-03-23T17:32:32.331Z,100642.75
2023-03-23T17:37:36.505Z,100654.53
2023-03-23T17:42:38.923Z,100657.47
2023-03-23T17:47:41.316Z,100662.44
2023-03-23T17:52:43.912Z,100670.44
2023-03-23T17:57:46.289Z,100676.22
2023-03-23T18:02:48.647Z,100682.66
2023-03-23T18:07:51.461Z,100700.63
2023-03-23T18:12:53.706Z,100682.88
2023-03-23T18:17:57.275Z,100702.44
2023-03-23T18:22:59.493Z,100702.34
2023-03-23T18:28:04.831Z,100710.44
2023-03-23T18:33:07.946Z,100721.47
2023-03-23T18:38:10.936Z,100732.38
2023-03-23T18:43:14.045Z,100717.50
2023-03-23T18:48:16.520Z,100736.41
2023-03-23T18:53:20.676Z,100745.34
2023-03-23T18:58:22.873Z,100742.94
2023-03-23T19:03:26.162Z,100732.78
2023-03-23T19:08:29.689Z,100748.59
2023-03-23T19:13:37.558Z,100744.31
2023-03-23T19:18:41.082Z,100772.13
2023-03-23T19:23:43.284Z,100785.66
2023-03-23T19:29:23.345Z,100774.44
2023-03-23T19:34:08.593Z,100780.88
2023-03-23T19:39:11.293Z,100786.69
2023-03-23T19:44:13.555Z,100770.94
2023-03-23T19:49:15.904Z,100768.66
2023-03-23T19:54:19.624Z,100777.34
2023-03-23T19:59:22.548Z,100785.47
2023-03-23T20:04:24.986Z,100789.22
2023-03-23T20:09:27.209Z,100806.50
2023-03-23T20:14:29.534Z,100820.41
2023-03-23T20:19:31.755Z,100810.66
2023-03-23T20:24:34.544Z,100826.03
2023-03-23T20:29:39.493Z,100799.59
2023-03-23T20:34:42.558Z,100828.72
2023-03-23T20:39:46.348Z,100798.16
2023-03-23T20:44:48.500Z,100808.34
2023-03-23T20:49:52.830Z,100814.78
2023-03-23T20:54:56.847Z,100804.38
2023-03-23T20:59:59.128Z,100808.94
2023-03-23T21:05:05.331Z,100805.63
2023-03-23T21:10:07.723Z,100831.56
2023-03-23T21:15:10.417Z,100832.56
2023-03-23T21:20:13.632Z,100824.41
2023-03-23T21:25:16.198Z,100816.34
2023-03-23T21:30:19.400Z,100824.66
2023-03-23T21:35:21.587Z,100802.88
2023-03-23T21:40:23.799Z,100821.19
2023-03-23T21:45:26.688Z,100802.25
2023-03-23T21:50:30.351Z,100825.97
2023-03-23T21:55:34.373Z,100818.84
2023-03-23T22:00:36.704Z,100831.94
2023-03-23T22:05:42.098Z,100819.81
2023-03-23T22:11:00.792Z,100843.91
2023-03-23T22:16:06.341Z,100809.75
2023-03-23T22:21:08.594Z,100837.00
2023-03-23T22:26:11.689Z,100848.25
2023-03-23T22:31:19.112Z,100832.84
2023-03-23T22:36:22.419Z,100827.47
2023-03-23T22:41:30.601Z,100837.44
2023-03-23T22:46:32.946Z,100838.34
2023-03-23T22:51:37.270Z,100850.34
2023-03-23T22:56:40.029Z,100868.78
2023-03-23T23:01:42.632Z,100860.41
2023-03-23T23:06:44.770Z,100842.91
2023-03-23T23:11:47.324Z,100861.72
2023-03-23T23:16:49.793Z,100872.59
2023-03-23T23:21:51.929Z,100827.75
2023-03-23T23:26:54.403Z,100860.31
2023-03-23T23:31:56.676Z,100854.31
2023-03-23T23:36:59.881Z,100840.28
2023-03-23T23:42:02.210Z,100840.53
2023-03-23T23:47:05.427Z,100863.53
2023-03-23T23:52:08.743Z,100865.00
2023-03-23T23:57:10.915Z,100840.88
